»·PEaware :: N511H KFUL-11CL

N511H :: KFUL-11CL

FLIGHT INFORMATION

Flight Status: Arrived
Operator: Privately registered:
United States
More flights under this callsign
Pilot: Edward H. (2712)
Aircraft: Unknown
(B429)
More flights by this aircraft type
Origin: KFUL Fullerton Mun
United States
Destination: 11CL Hansen
United States
More flights between these airports :: More routes between these airports
Route: +SLI
File this flight plan on PilotEdge
Remarks:
Altitude:
(Current/Filed)
0ft
Speed:
(Current/Filed)
0kts
Departed: 30-Jun-18 07:34 AM
Arrived: 30-Jun-18 08:07 AM
Distance/Time
Traveled:
47nm/0:33
Distance/Time
To Go:
Arrived

Flight Plot

Page will automatically refresh every two minutes.

Flight plan parsing failed; only flown route is shown


Map Options




Map Legend


Flown Route
Filed Route
Departure Airport
Arrival Airport
Navaid (VOR, NDB)
Fix

Horizontal Profiles

Position Reports

Time Latitude Longitude Heading Altitude Ground
Speed
30-Jun-18 07:28 33.871193 -117.980793 164 101ft 0kts
30-Jun-18 07:29 33.871193 -117.980793 164 101ft 0kts
30-Jun-18 07:30 33.871193 -117.980794 158 101ft 0kts
30-Jun-18 07:31 33.871193 -117.980794 158 101ft 0kts
30-Jun-18 07:32 33.871193 -117.980794 159 101ft 0kts
30-Jun-18 07:33 33.871195 -117.980794 156 102ft 0kts
30-Jun-18 07:34 33.891864 -117.988492 348 586ft 143kts
30-Jun-18 07:35 33.932389 -117.995893 357 774ft 147kts
30-Jun-18 07:36 33.973148 -117.992677 11 1179ft 147kts
30-Jun-18 07:37 34.013319 -117.989510 351 1723ft 127kts
30-Jun-18 07:38 34.053452 -117.996873 24 1155ft 154kts
30-Jun-18 07:39 34.074469 -117.957243 69 1475ft 151kts
30-Jun-18 07:40 34.090283 -117.914828 52 1768ft 131kts
30-Jun-18 07:41 34.114691 -117.878312 38 1722ft 129kts
30-Jun-18 07:42 34.134718 -117.844193 57 2550ft 139kts
30-Jun-18 07:43 34.141067 -117.795856 83 2351ft 151kts
30-Jun-18 07:44 34.145764 -117.748358 77 2493ft 146kts
30-Jun-18 07:45 34.152619 -117.700411 79 2403ft 148kts
30-Jun-18 07:46 34.158570 -117.657481 79 2692ft 133kts
30-Jun-18 07:47 34.161394 -117.609685 84 2691ft 145kts
30-Jun-18 07:48 34.162859 -117.560840 84 2697ft 148kts
30-Jun-18 07:49 34.164353 -117.511801 84 2698ft 144kts
30-Jun-18 07:50 34.167769 -117.463329 60 2699ft 142kts
30-Jun-18 07:51 34.189856 -117.424721 38 2691ft 142kts
30-Jun-18 07:52 34.225691 -117.408828 336 2824ft 146kts
30-Jun-18 07:53 34.256104 -117.441126 316 3346ft 145kts
30-Jun-18 07:54 34.293280 -117.455954 354 3536ft 147kts
30-Jun-18 07:55 34.332576 -117.471228 339 3955ft 149kts
30-Jun-18 07:56 34.366229 -117.475106 330 4952ft 122kts
30-Jun-18 07:57 34.400361 -117.501470 328 4772ft 150kts
30-Jun-18 07:58 34.434777 -117.528785 328 4763ft 150kts
30-Jun-18 07:59 34.469386 -117.555879 329 4761ft 149kts
30-Jun-18 08:00 34.500608 -117.579573 329 4761ft 149kts
30-Jun-18 08:01 34.500766 -117.579690 329 4761ft 149kts
30-Jun-18 08:02 34.536402 -117.605037 332 4776ft 148kts
30-Jun-18 08:03 34.572769 -117.627696 335 4635ft 147kts
30-Jun-18 08:04 34.609467 -117.649517 334 4351ft 147kts
30-Jun-18 08:05 34.643857 -117.649108 17 4565ft 117kts
30-Jun-18 08:06 34.634280 -117.635517 182 4853ft 121kts
30-Jun-18 08:07 34.631963 -117.655606 338 4841ft 36kts
30-Jun-18 08:08 34.640099 -117.661149 339 4818ft 32kts
30-Jun-18 08:09 34.648676 -117.662978 47 4752ft 61kts
30-Jun-18 08:10 34.635445 -117.671519 173 3756ft 83kts
30-Jun-18 08:11 34.629695 -117.660936 69 2960ft 44kts
30-Jun-18 08:12 34.630230 -117.655429 76 2888ft 0kts
30-Jun-18 08:13 34.630230 -117.655429 76 2888ft 0kts
30-Jun-18 08:14 34.630231 -117.655429 74 2888ft 0kts
30-Jun-18 08:15 34.630231 -117.655427 69 2889ft 0kts
30-Jun-18 08:16 34.630230 -117.655426 60 2889ft 0kts
30-Jun-18 08:17 34.630230 -117.655426 60 2889ft 0kts
30-Jun-18 08:18 34.633207 -117.648344 77 3304ft 50kts
30-Jun-18 08:19 34.629360 -117.642050 102 3230ft 21kts
30-Jun-18 08:20 34.620634 -117.637946 144 3367ft 78kts
30-Jun-18 08:21 34.589638 -117.615547 144 3800ft 148kts

Navigation Log

Ident Type
Flight plan parsing failed, navigation log unavailable